createdAt,value
2022-10-20T00:01:18.484Z,11.19
2022-10-20T00:03:47.038Z,11.17
2022-10-20T00:06:17.338Z,11.17
2022-10-20T00:08:47.895Z,11.21
2022-10-20T00:11:18.639Z,11.32
2022-10-20T00:13:50.404Z,11.33
2022-10-20T00:16:19.224Z,11.32
2022-10-20T00:18:47.810Z,11.30
2022-10-20T00:21:17.831Z,11.30
2022-10-20T00:23:47.552Z,11.30
2022-10-20T00:26:17.649Z,11.24
2022-10-20T00:28:46.802Z,11.36
2022-10-20T00:31:16.145Z,11.44
2022-10-20T00:33:44.526Z,11.38
2022-10-20T00:36:14.971Z,11.32
2022-10-20T00:38:43.588Z,11.26
2022-10-20T00:41:13.997Z,11.22
2022-10-20T00:43:44.273Z,11.43
2022-10-20T00:46:13.098Z,11.20
2022-10-20T00:48:44.486Z,11.18
2022-10-20T00:51:14.364Z,11.17
2022-10-20T00:53:42.757Z,11.14
2022-10-20T00:56:11.373Z,11.22
2022-10-20T00:58:41.268Z,11.24
2022-10-20T01:01:09.804Z,11.30
2022-10-20T01:03:42.593Z,11.27
2022-10-20T01:06:11.301Z,11.25
2022-10-20T01:08:39.658Z,11.32
2022-10-20T01:11:18.222Z,11.35
2022-10-20T01:13:58.840Z,11.33
2022-10-20T01:16:34.083Z,11.29
2022-10-20T01:19:11.005Z,11.30
2022-10-20T01:22:02.110Z,11.20
2022-10-20T01:24:47.927Z,11.14
2022-10-20T01:27:32.009Z,11.17
2022-10-20T01:30:08.816Z,11.04
2022-10-20T01:32:45.773Z,11.04
2022-10-20T01:35:20.963Z,11.02
2022-10-20T01:37:52.466Z,11.17
2022-10-20T01:40:27.939Z,11.20
2022-10-20T01:43:00.772Z,11.11
2022-10-20T01:45:32.223Z,11.18
2022-10-20T01:48:08.634Z,11.07
2022-10-20T01:50:37.546Z,11.15
2022-10-20T01:53:06.220Z,11.22
2022-10-20T01:55:35.147Z,11.28
2022-10-20T01:58:17.744Z,11.29
2022-10-20T02:00:46.322Z,11.25
2022-10-20T02:03:34.092Z,11.19
2022-10-20T02:06:15.472Z,11.19
2022-10-20T02:08:45.585Z,11.13
2022-10-20T02:11:17.796Z,11.11
2022-10-20T02:13:47.776Z,11.19
2022-10-20T02:16:19.400Z,11.16
2022-10-20T02:18:48.282Z,11.07
2022-10-20T02:21:17.679Z,11.07
2022-10-20T02:23:47.497Z,11.07
2022-10-20T02:26:16.990Z,11.02
2022-10-20T02:28:49.875Z,11.06
2022-10-20T02:31:19.161Z,11.08
2022-10-20T02:33:47.831Z,11.04
2022-10-20T02:36:19.482Z,10.99
2022-10-20T02:38:48.068Z,11.07
2022-10-20T02:41:16.571Z,11.03
2022-10-20T02:43:44.946Z,11.01
2022-10-20T02:48:47.939Z,10.99
2022-10-20T02:51:17.446Z,10.99
2022-10-20T02:53:46.985Z,11.05
2022-10-20T02:56:15.442Z,11.06
2022-10-20T02:58:44.060Z,11.10
2022-10-20T03:01:12.645Z,11.03
2022-10-20T03:03:46.015Z,11.00
2022-10-20T03:06:16.718Z,10.96
2022-10-20T03:08:45.597Z,10.99
2022-10-20T03:11:14.015Z,10.97
2022-10-20T03:13:42.526Z,10.88
2022-10-20T03:16:10.896Z,10.92
2022-10-20T03:18:39.475Z,10.90
2022-10-20T03:21:09.873Z,10.82
2022-10-20T03:23:38.286Z,10.77
2022-10-20T03:26:08.086Z,10.77
2022-10-20T03:28:36.601Z,10.73
2022-10-20T03:31:05.076Z,10.86
2022-10-20T03:33:33.677Z,10.87
2022-10-20T03:36:02.162Z,10.79
2022-10-20T03:38:34.289Z,10.75
2022-10-20T03:41:02.812Z,10.74
2022-10-20T03:43:31.638Z,10.76
2022-10-20T03:46:04.587Z,10.81
2022-10-20T03:48:33.110Z,10.80
2022-10-20T03:51:02.041Z,10.86
2022-10-20T03:53:31.877Z,10.78
2022-10-20T03:56:00.188Z,10.89
2022-10-20T03:58:28.809Z,10.83
2022-10-20T04:00:57.202Z,10.82
2022-10-20T04:03:25.765Z,10.80
2022-10-20T04:05:54.172Z,10.69
2022-10-20T04:08:22.559Z,10.65
2022-10-20T04:10:52.475Z,10.58
2022-10-20T04:13:20.822Z,10.60
2022-10-20T04:15:49.273Z,10.62
2022-10-20T04:18:17.595Z,10.57
2022-10-20T04:20:46.419Z,10.54
2022-10-20T04:23:14.772Z,10.59
2022-10-20T04:25:49.765Z,10.55
2022-10-20T04:28:23.598Z,10.63
2022-10-20T04:30:53.199Z,10.55
2022-10-20T04:33:21.916Z,10.56
2022-10-20T04:38:22.867Z,10.53
2022-10-20T04:40:59.178Z,10.61
2022-10-20T04:43:33.439Z,10.53
2022-10-20T04:46:10.201Z,10.62
2022-10-20T04:48:43.438Z,10.48
2022-10-20T04:51:17.050Z,10.44
2022-10-20T04:53:45.597Z,10.56
2022-10-20T04:56:18.591Z,10.48
2022-10-20T04:58:50.427Z,10.46
2022-10-20T05:01:21.070Z,10.43
2022-10-20T05:03:53.045Z,10.41
2022-10-20T05:06:25.634Z,10.49
2022-10-20T05:08:58.148Z,10.54
2022-10-20T05:11:33.334Z,10.43
2022-10-20T05:14:03.480Z,10.50
2022-10-20T05:16:33.752Z,10.47
2022-10-20T05:19:02.633Z,10.54
2022-10-20T05:21:35.733Z,10.53
2022-10-20T05:24:06.151Z,10.48
2022-10-20T05:26:38.054Z,10.52
2022-10-20T05:29:11.256Z,10.54
2022-10-20T05:31:41.452Z,10.53
2022-10-20T05:34:10.845Z,10.48
2022-10-20T05:36:39.597Z,10.51
2022-10-20T05:39:11.533Z,10.58
2022-10-20T05:41:40.301Z,10.61
2022-10-20T05:44:12.417Z,10.58
2022-10-20T05:46:41.847Z,10.71
2022-10-20T05:49:16.722Z,10.62
2022-10-20T05:51:54.057Z,10.81
2022-10-20T05:54:22.830Z,10.84
2022-10-20T05:56:51.567Z,10.89
2022-10-20T05:59:24.287Z,10.90
2022-10-20T06:01:53.050Z,10.94
2022-10-20T06:04:24.270Z,10.85
2022-10-20T06:06:54.812Z,11.01
2022-10-20T06:09:27.907Z,11.00
2022-10-20T06:11:57.861Z,11.09
2022-10-20T06:14:28.143Z,11.11
2022-10-20T06:17:00.796Z,11.15
2022-10-20T06:19:29.495Z,11.09
2022-10-20T06:22:02.416Z,11.23
2022-10-20T06:24:35.231Z,11.21
2022-10-20T06:27:04.832Z,11.35
2022-10-20T06:29:35.902Z,11.32
2022-10-20T06:32:04.771Z,11.33
2022-10-20T06:34:38.455Z,11.13
2022-10-20T06:37:08.475Z,11.03
2022-10-20T06:39:37.267Z,11.32
2022-10-20T06:42:09.701Z,11.27
2022-10-20T06:44:48.580Z,11.27
2022-10-20T06:47:20.032Z,11.30
2022-10-20T06:49:51.846Z,11.26
2022-10-20T06:52:23.044Z,11.40
2022-10-20T06:54:54.030Z,11.56
2022-10-20T06:57:22.541Z,11.48
2022-10-20T06:59:52.526Z,11.49
2022-10-20T07:02:22.021Z,11.55
2022-10-20T07:04:51.501Z,11.78
2022-10-20T07:07:22.707Z,11.97
2022-10-20T07:09:51.139Z,11.91
2022-10-20T07:12:19.493Z,11.84
2022-10-20T07:14:50.609Z,12.02
2022-10-20T07:17:20.470Z,11.87
2022-10-20T07:19:48.815Z,11.99
2022-10-20T07:22:17.167Z,11.70
2022-10-20T07:24:45.612Z,11.82
2022-10-20T07:27:13.943Z,12.01
2022-10-20T07:29:43.049Z,12.04
2022-10-20T07:32:11.380Z,12.20
2022-10-20T07:34:41.514Z,12.55
2022-10-20T07:37:10.043Z,12.39
2022-10-20T07:39:39.425Z,12.51
2022-10-20T07:42:08.086Z,12.45
2022-10-20T07:44:36.658Z,12.48
2022-10-20T07:47:05.051Z,12.53
2022-10-20T07:49:48.690Z,12.54
2022-10-20T07:52:18.573Z,12.50
2022-10-20T07:54:46.929Z,12.52
2022-10-20T07:57:15.468Z,12.91
2022-10-20T07:59:43.880Z,12.97
2022-10-20T08:02:13.775Z,13.07
2022-10-20T08:04:44.174Z,12.73
2022-10-20T08:07:12.660Z,13.07
2022-10-20T08:09:42.455Z,13.25
2022-10-20T08:12:10.833Z,13.23
2022-10-20T08:14:39.159Z,13.13
2022-10-20T08:17:07.413Z,13.31
2022-10-20T08:22:20.068Z,13.53
2022-10-20T08:24:49.775Z,13.26
2022-10-20T08:27:18.162Z,13.58
2022-10-20T08:29:55.247Z,13.48
2022-10-20T08:32:36.247Z,13.76
2022-10-20T08:35:05.089Z,13.80
2022-10-20T08:37:34.605Z,13.97
2022-10-20T08:40:05.270Z,13.97
2022-10-20T08:42:39.685Z,13.40
2022-10-20T08:45:09.140Z,13.84
2022-10-20T08:47:38.433Z,13.99
2022-10-20T08:50:09.929Z,13.94
2022-10-20T08:52:40.530Z,13.95
2022-10-20T08:55:17.766Z,13.79
2022-10-20T08:57:49.366Z,13.78
2022-10-20T09:00:19.476Z,13.97
2022-10-20T09:02:48.972Z,13.99
2022-10-20T09:05:19.318Z,14.44
2022-10-20T09:07:50.082Z,14.32
2022-10-20T09:10:37.726Z,13.86
2022-10-20T09:13:09.806Z,14.14
2022-10-20T09:15:38.654Z,14.35
2022-10-20T09:18:09.930Z,14.20
2022-10-20T09:20:42.684Z,14.02
2022-10-20T09:23:35.628Z,14.19
2022-10-20T09:26:07.327Z,14.38
2022-10-20T09:28:49.217Z,14.74
2022-10-20T09:31:25.702Z,14.78
2022-10-20T09:33:54.144Z,14.48
2022-10-20T09:36:23.140Z,14.56
2022-10-20T09:38:52.844Z,15.00
2022-10-20T09:41:24.603Z,14.92
2022-10-20T09:43:58.041Z,14.78
2022-10-20T09:46:28.736Z,14.94
2022-10-20T09:48:57.199Z,15.19
2022-10-20T09:51:27.146Z,15.21
2022-10-20T09:53:58.516Z,15.05
2022-10-20T09:56:31.006Z,15.40
2022-10-20T09:59:01.303Z,15.66
2022-10-20T10:01:31.244Z,15.47
2022-10-20T10:04:02.323Z,15.47
2022-10-20T10:06:34.247Z,15.44
2022-10-20T10:09:03.270Z,15.41
2022-10-20T10:11:36.639Z,15.43
2022-10-20T10:14:06.471Z,15.42
2022-10-20T10:16:45.439Z,15.67
2022-10-20T10:19:18.620Z,15.72
2022-10-20T10:21:49.492Z,15.52
2022-10-20T10:24:33.060Z,15.44
2022-10-20T10:27:03.441Z,15.32
2022-10-20T10:29:34.910Z,15.91
2022-10-20T10:32:04.799Z,15.61
2022-10-20T10:34:49.223Z,15.46
2022-10-20T10:39:52.812Z,14.97
2022-10-20T10:42:41.438Z,14.81
2022-10-20T10:45:18.845Z,14.62
2022-10-20T10:48:04.041Z,14.87
2022-10-20T10:50:39.182Z,14.83
2022-10-20T10:53:17.202Z,15.13
2022-10-20T10:55:51.482Z,15.29
2022-10-20T10:58:28.950Z,15.35
2022-10-20T11:01:02.285Z,15.43
2022-10-20T11:03:56.342Z,15.25
2022-10-20T11:06:31.167Z,15.38
2022-10-20T11:09:10.888Z,15.11
2022-10-20T11:11:47.353Z,14.93
2022-10-20T11:14:24.617Z,14.72
2022-10-20T11:17:02.563Z,14.53
2022-10-20T11:19:44.572Z,14.57
2022-10-20T11:22:21.662Z,14.96
2022-10-20T11:24:56.156Z,14.69
2022-10-20T11:27:27.105Z,14.72
2022-10-20T11:30:04.887Z,14.64
2022-10-20T11:32:38.051Z,15.12
2022-10-20T11:35:14.826Z,14.90
2022-10-20T11:37:47.766Z,15.14
2022-10-20T11:40:24.142Z,15.06
2022-10-20T11:42:58.988Z,15.17
2022-10-20T11:45:34.047Z,14.67
2022-10-20T11:48:08.111Z,14.63
2022-10-20T11:50:36.906Z,14.33
2022-10-20T11:53:22.586Z,14.53
2022-10-20T11:56:04.683Z,14.81
2022-10-20T11:58:52.408Z,14.83
2022-10-20T12:01:30.263Z,14.94
2022-10-20T12:04:39.855Z,14.82
2022-10-20T12:07:31.885Z,14.95
2022-10-20T12:10:31.938Z,14.92
2022-10-20T12:13:08.882Z,15.18
2022-10-20T12:15:46.180Z,15.02
2022-10-20T12:18:25.518Z,14.87
2022-10-20T12:20:57.052Z,14.63
2022-10-20T12:24:13.674Z,14.87
2022-10-20T12:27:15.336Z,15.09
2022-10-20T12:29:58.197Z,15.26
2022-10-20T12:32:46.379Z,15.19
2022-10-20T12:35:47.783Z,15.19
2022-10-20T12:38:19.105Z,15.31
2022-10-20T12:40:52.807Z,15.51
2022-10-20T12:43:34.964Z,15.55
2022-10-20T12:46:10.650Z,15.40
2022-10-20T12:48:44.831Z,15.46
2022-10-20T12:51:27.076Z,15.72
2022-10-20T12:54:00.582Z,15.89
2022-10-20T12:56:34.893Z,16.02
2022-10-20T12:59:35.368Z,16.25
2022-10-20T13:02:32.434Z,16.42
2022-10-20T13:05:02.793Z,16.80
2022-10-20T13:08:07.522Z,17.48
2022-10-20T13:10:39.186Z,18.33
2022-10-20T13:13:35.035Z,18.88
2022-10-20T13:16:03.710Z,19.28
2022-10-20T13:18:34.141Z,18.57
2022-10-20T13:21:06.735Z,19.71
2022-10-20T13:23:38.275Z,19.21
2022-10-20T13:26:17.202Z,19.56
2022-10-20T13:28:46.659Z,20.54
2022-10-20T13:31:19.492Z,20.87
2022-10-20T13:34:04.530Z,20.02
2022-10-20T13:36:56.257Z,19.27
2022-10-20T13:39:31.991Z,19.59
2022-10-20T13:42:09.632Z,19.40
2022-10-20T13:44:43.768Z,20.25
2022-10-20T13:47:28.654Z,20.50
2022-10-20T13:50:03.095Z,20.38
2022-10-20T13:52:34.023Z,20.54
2022-10-20T13:55:03.219Z,20.40
2022-10-20T13:57:35.295Z,19.48
2022-10-20T14:00:06.954Z,19.14
2022-10-20T14:02:37.488Z,18.73
2022-10-20T14:05:09.664Z,18.85
2022-10-20T14:07:39.997Z,18.44
2022-10-20T14:10:18.376Z,18.21
2022-10-20T14:12:50.659Z,18.29
2022-10-20T14:15:24.433Z,18.03
2022-10-20T14:18:01.231Z,17.73
2022-10-20T14:20:32.818Z,17.43
2022-10-20T14:23:02.241Z,17.43
2022-10-20T14:25:32.591Z,16.97
2022-10-20T14:28:06.588Z,16.38
2022-10-20T14:30:40.108Z,16.52
2022-10-20T14:33:14.767Z,16.59
2022-10-20T14:35:45.014Z,16.53
2022-10-20T14:38:20.090Z,16.58
2022-10-20T14:40:53.153Z,15.96
2022-10-20T14:43:28.600Z,15.72
2022-10-20T14:45:59.432Z,16.06
2022-10-20T14:48:29.976Z,15.94
2022-10-20T14:50:58.388Z,15.68
2022-10-20T14:53:32.899Z,15.74
2022-10-20T14:56:02.646Z,15.50
2022-10-20T14:58:35.698Z,14.78
2022-10-20T15:01:32.417Z,14.75
2022-10-20T15:06:42.819Z,14.64
2022-10-20T15:09:21.620Z,14.64
2022-10-20T15:11:50.207Z,14.38
2022-10-20T15:14:20.082Z,14.53
2022-10-20T15:16:50.997Z,14.68
2022-10-20T15:19:31.503Z,14.41
2022-10-20T15:22:10.135Z,14.58
2022-10-20T15:24:40.330Z,14.59
2022-10-20T15:27:17.561Z,14.76
2022-10-20T15:29:50.587Z,14.49
2022-10-20T15:32:25.336Z,14.53
2022-10-20T15:34:53.784Z,14.32
2022-10-20T15:37:22.155Z,14.37
2022-10-20T15:39:50.483Z,14.36
2022-10-20T15:42:18.934Z,14.18
2022-10-20T15:44:48.637Z,14.33
2022-10-20T15:47:17.046Z,14.27
2022-10-20T15:49:45.496Z,13.83
2022-10-20T15:52:13.904Z,13.83
2022-10-20T15:54:43.389Z,13.67
2022-10-20T15:57:12.474Z,13.65
2022-10-20T15:59:42.158Z,13.52
2022-10-20T16:02:13.769Z,13.43
2022-10-20T16:04:42.622Z,13.42
2022-10-20T16:07:11.067Z,13.45
2022-10-20T16:09:40.201Z,13.45
2022-10-20T16:12:09.018Z,13.48
2022-10-20T16:14:39.074Z,13.85
2022-10-20T16:17:08.033Z,13.55
2022-10-20T16:19:37.943Z,13.46
2022-10-20T16:22:06.848Z,13.52
2022-10-20T16:24:36.342Z,13.37
2022-10-20T16:27:06.547Z,13.15
2022-10-20T16:29:35.743Z,13.15
2022-10-20T16:32:04.657Z,13.39
2022-10-20T16:34:33.232Z,13.45
2022-10-20T16:37:03.207Z,13.24
2022-10-20T16:39:32.310Z,13.13
2022-10-20T16:42:03.509Z,13.07
2022-10-20T16:44:34.094Z,13.15
2022-10-20T16:47:04.210Z,13.13
2022-10-20T16:49:33.075Z,13.09
2022-10-20T16:52:03.689Z,13.07
2022-10-20T16:54:35.187Z,13.14
2022-10-20T16:57:06.095Z,13.15
2022-10-20T16:59:45.630Z,13.15
2022-10-20T17:02:18.599Z,13.20
2022-10-20T17:04:51.559Z,13.38
2022-10-20T17:07:27.078Z,13.32
2022-10-20T17:09:57.561Z,13.10
2022-10-20T17:12:29.102Z,13.11
2022-10-20T17:15:00.257Z,13.07
2022-10-20T17:17:41.960Z,13.04
2022-10-20T17:20:13.107Z,13.01
2022-10-20T17:22:48.528Z,12.96
2022-10-20T17:25:18.828Z,12.96
2022-10-20T17:27:53.347Z,12.94
2022-10-20T17:30:25.044Z,12.92
2022-10-20T17:32:54.983Z,12.94
2022-10-20T17:35:25.947Z,13.07
2022-10-20T17:38:04.467Z,12.99
2022-10-20T17:40:42.657Z,13.04
2022-10-20T17:43:21.913Z,13.13
2022-10-20T17:46:03.429Z,13.10
2022-10-20T17:48:51.058Z,13.05
2022-10-20T17:51:34.942Z,12.97
2022-10-20T17:54:21.485Z,13.10
2022-10-20T17:57:00.094Z,12.98
2022-10-20T17:59:42.465Z,13.03
2022-10-20T18:02:25.603Z,13.18
2022-10-20T18:05:01.459Z,13.08
2022-10-20T18:07:57.322Z,12.88
2022-10-20T18:10:33.246Z,12.85
2022-10-20T18:13:04.584Z,12.86
2022-10-20T18:15:40.009Z,12.69
2022-10-20T18:18:11.055Z,12.75
2022-10-20T18:20:42.567Z,12.80
2022-10-20T18:23:15.671Z,12.66
2022-10-20T18:25:51.488Z,12.73
2022-10-20T18:28:24.769Z,12.70
2022-10-20T18:30:56.928Z,12.72
2022-10-20T18:33:27.889Z,12.69
2022-10-20T18:35:59.552Z,12.64
2022-10-20T18:38:32.173Z,12.75
2022-10-20T18:41:13.738Z,12.64
2022-10-20T18:43:46.510Z,13.14
2022-10-20T18:46:40.013Z,12.92
2022-10-20T18:49:34.346Z,12.84
2022-10-20T18:52:10.974Z,12.89
2022-10-20T18:54:42.011Z,12.89
2022-10-20T18:57:14.910Z,12.92
2022-10-20T18:59:47.609Z,12.83
2022-10-20T19:02:28.578Z,12.68
2022-10-20T19:05:02.431Z,12.61
2022-10-20T19:07:37.984Z,12.74
2022-10-20T19:10:14.131Z,12.67
2022-10-20T19:12:47.220Z,12.69
2022-10-20T19:15:19.224Z,12.63
2022-10-20T19:17:50.547Z,12.60
2022-10-20T19:20:24.192Z,12.57
2022-10-20T19:22:57.574Z,12.57
2022-10-20T19:25:31.684Z,12.59
2022-10-20T19:28:05.520Z,12.68
2022-10-20T19:30:38.826Z,12.78
2022-10-20T19:33:11.379Z,12.70
2022-10-20T19:35:43.932Z,12.58
2022-10-20T19:38:18.270Z,12.64
2022-10-20T19:40:49.795Z,12.55
2022-10-20T19:43:24.299Z,12.34
2022-10-20T19:45:54.468Z,12.44
2022-10-20T19:48:24.680Z,12.47
2022-10-20T19:50:57.506Z,12.37
2022-10-20T19:53:30.434Z,12.54
2022-10-20T19:56:02.154Z,12.33
2022-10-20T19:58:35.207Z,12.46
2022-10-20T20:01:06.477Z,12.47
2022-10-20T20:03:38.273Z,12.57
2022-10-20T20:06:10.602Z,12.57
2022-10-20T20:08:41.108Z,12.54
2022-10-20T20:11:13.566Z,12.57
2022-10-20T20:13:45.547Z,12.55
2022-10-20T20:16:15.366Z,12.53
2022-10-20T20:18:45.543Z,12.56
2022-10-20T20:21:16.546Z,12.60
2022-10-20T20:24:01.625Z,12.62
2022-10-20T20:26:31.877Z,12.58
2022-10-20T20:29:01.713Z,12.57
2022-10-20T20:31:30.842Z,12.73
2022-10-20T20:33:59.358Z,12.70
2022-10-20T20:36:28.733Z,12.60
2022-10-20T20:38:58.319Z,12.59
2022-10-20T20:41:28.766Z,12.50
2022-10-20T20:43:57.957Z,12.54
2022-10-20T20:46:33.680Z,12.60
2022-10-20T20:49:05.722Z,12.54
2022-10-20T20:51:35.954Z,12.47
2022-10-20T20:54:04.926Z,12.50
2022-10-20T20:56:33.612Z,12.50
2022-10-20T20:59:03.085Z,12.50
2022-10-20T21:01:34.076Z,12.53
2022-10-20T21:04:03.719Z,12.54
2022-10-20T21:06:56.423Z,12.54
2022-10-20T21:09:21.884Z,12.50
2022-10-20T21:11:50.597Z,12.41
2022-10-20T21:14:20.927Z,12.42
2022-10-20T21:16:51.106Z,12.38
2022-10-20T21:19:23.429Z,12.30
2022-10-20T21:21:58.290Z,12.28
2022-10-20T21:24:27.442Z,12.16
2022-10-20T21:26:55.868Z,12.21
2022-10-20T21:29:24.735Z,12.18
2022-10-20T21:31:55.701Z,12.21
2022-10-20T21:34:24.098Z,12.22
2022-10-20T21:36:53.533Z,12.25
2022-10-20T21:39:21.910Z,12.22
2022-10-20T21:41:51.583Z,12.20
2022-10-20T21:44:20.112Z,12.20
2022-10-20T21:46:50.195Z,12.19
2022-10-20T21:49:25.415Z,12.16
2022-10-20T21:51:55.591Z,12.14
2022-10-20T21:54:27.150Z,12.09
2022-10-20T21:56:56.547Z,12.05
2022-10-20T21:59:26.527Z,12.06
2022-10-20T22:01:56.052Z,12.03
2022-10-20T22:04:29.045Z,11.92
2022-10-20T22:06:59.522Z,11.91
2022-10-20T22:09:28.331Z,11.92
2022-10-20T22:11:58.566Z,11.87
2022-10-20T22:14:27.345Z,11.87
2022-10-20T22:16:56.775Z,11.89
2022-10-20T22:19:29.239Z,11.88
2022-10-20T22:24:27.891Z,11.85
2022-10-20T22:26:56.350Z,11.88
2022-10-20T22:29:24.847Z,11.76
2022-10-20T22:31:53.271Z,11.72
2022-10-20T22:34:22.022Z,11.70
2022-10-20T22:36:51.730Z,11.65
2022-10-20T22:39:20.548Z,11.58
2022-10-20T22:41:48.947Z,11.64
2022-10-20T22:44:19.789Z,11.53
2022-10-20T22:46:48.094Z,11.51
2022-10-20T22:49:16.614Z,11.51
2022-10-20T22:51:45.034Z,11.47
2022-10-20T22:54:14.777Z,11.40
2022-10-20T22:56:43.206Z,11.38
2022-10-20T22:59:11.702Z,11.27
2022-10-20T23:01:40.077Z,11.21
2022-10-20T23:04:08.548Z,11.10
2022-10-20T23:06:36.890Z,10.98
2022-10-20T23:09:05.507Z,10.90
2022-10-20T23:11:35.571Z,10.84
2022-10-20T23:14:04.102Z,10.82
2022-10-20T23:16:32.421Z,10.70
2022-10-20T23:19:00.872Z,10.54
2022-10-20T23:21:29.266Z,10.43
2022-10-20T23:23:57.665Z,10.32
2022-10-20T23:26:26.002Z,10.21
2022-10-20T23:28:56.040Z,10.22
2022-10-20T23:31:25.508Z,10.20
2022-10-20T23:33:56.286Z,10.17
2022-10-20T23:36:24.915Z,10.17
2022-10-20T23:38:53.428Z,10.10
2022-10-20T23:41:21.983Z,10.03
2022-10-20T23:43:50.395Z,10.03
2022-10-20T23:46:20.205Z,10.11
2022-10-20T23:48:48.617Z,10.07
2022-10-20T23:51:17.857Z,10.12
2022-10-20T23:53:46.305Z,10.13
2022-10-20T23:56:14.650Z,10.13
2022-10-20T23:58:43.965Z,10.25
